Startpagina
METAR-TAF:

METAR-TAF

Vliegvelden :

Aeroporto de Faro

Faro, Portugal

breedte: 37-01N, lengte: 007-58W, hoogte: 7 m

Actueel weer

Dit bericht is 30 minuten geleden gemaakt, om 20:30 UTC
Wind 11 kt uit het noordwesten
Temperatuur 12°C
Vochtigheid 62%
Druk 1030 hPa
Zicht 10 km of meer
geen wolken onder 1500 m en geen cumulonimbus

METAR: LPFR 112030Z 32011KT CAVOK 12/05 Q1030

Tijdstip: 21:00 (21:00 UTC)

Verwachting

Dit bericht is 4 uur en het 0 minuten geleden gemaakt, om 17:00 UTC
Verwachting geldig van 11 om 18 UTC tot 12 om 18 UTC
Wind 8 kt uit het noordnoordwesten
Zicht 10 km of meer
geen wolken onder 1500 m en geen cumulonimbus
Wijzigt naar
van 12 om 08 UTC tot 12 om 10 UTC
Wind 10 kt uit het westen
Zicht 10 km of meer
Verspreide wolken op 1500 ft
Wijzigt naar
van 12 om 15 UTC tot 12 om 18 UTC
Wind 12 kt uit het westnoordwesten
Zicht 10 km of meer
geen wolken onder 1500 m en geen cumulonimbus

TAF: LPFR 111700Z 1118/1218 34008KT CAVOK BECMG 1208/1210 27010KT 9999 SCT015 BECMG 1215/1218 30012KT CAVOK

Waarnemingen en weersverwachtingen van meer dan 4000 vliegvelden (METAR en TAF).

De beschikbare stations zijn de gele en rode punten op de kaart.

Ga met uw muis naar het station om de naam te zien.

Klik dan om waarnemingen en weersverwachtingen te zien.

kaart wijzigen: klik op de groene knoppen met een zwart kruis om in te zoomen, op de groene knop met een streepje om uit te zoomen of op de groene pijlen voor aangrenzende kaarten.


METAR-TAF: